Turaif, Saudi Arabia
Current Conditions -  °F | °C
As of 12:00 PM on Friday 31 Oct 2014 (Local Time) from OETR Reporting Station
Broken Clouds Broken Clouds  
Wind Chill: 68°   Ceiling: 4000
Heat Index: 68°   Visibility: 6mi
Dew Point: 50°   Wind: 14mph
Humidity: 52%   Direction: 290°WNW
Pressure: 29.91"   Gusts: NA
Location:  31.69°N, 38.73°E
Report Text: OETR 310900Z 29012KT 9999 BKN040 20/10 Q1013 NOSIG
Loading
Personal Weather Stations






























Interactive Weather Map
Tropical Storm Tracking
New forecast layout! Learn more

10-Day Weather Forecast

Advertisements
Track Severe Weather on mobile